クライストチャーチ の空港の天気 - METARとTAF

クライストチャーチ国際空港 ( NZCH / CHC ) - ニュージーランド クライストチャーチ
飛行場実況気象(Metar)
観測時間05/26 10:30 NZST (05/25 22:30 UTC)
風向・風速西南西 4m/s
視程10km以上
天気現象
少しの雲 雲底高度 400m
気温11℃
湿度87%
気圧1022hPa
METARNZCH 252230Z AUTO 24007KT 9999 FEW013/// 11/09 Q1022 NOSIG
過去の天気等 Google飛行場航空写真 Wunderground天気予報

過去48時間のMETAR

飛行場予報(TAF)
発表時間: 5/26 08:05 NZST (5/25 20:05 UTC)
予報対象時間: 26日8時 NZST ~ 27日6時 NZST
風向・風速西南西 4m/s
視程10km以上
天気現象弱いしゅう雨
全天の4割程度の雲 雲底高度 460m
26日8時 NZST ~ 26日9時 NZST に一時的に
全天の8割程度の雲 雲底高度 430m
TAF AMD NZCH 252005Z 2520/2618 24008KT 9999 -SHRA SCT015
TEMPO 2520/2521 BKN014